Time;durP1;ratioP1;P1;durP2;ratioP2;P2;SDS_P1;SDS_P2;PMS_P1;PMS_P2;Temp;Humidity;BMP_temperature;BMP_pressure;BME280_temperature;BME280_humidity;BME280_pressure;Samples;Min_cycle;Max_cycle;Signal;HPM_P1;HPM_P2
2022/01/13 00:01:46;;;;;;;24.38;14.30;;;;;;;;;;6154668;23;20009;-78
2022/01/13 00:04:13;;;;;;;28.95;16.25;;;;;;;;;;6154428;23;19997;-78
2022/01/13 00:06:40;;;;;;;23.65;14.45;;;;;;;;;;6128687;23;20013;-77
2022/01/13 00:09:06;;;;;;;29.38;15.85;;;;;;;;;;6154106;23;20421;-78
2022/01/13 00:11:32;;;;;;;25.92;15.05;;;;;;;;;;6154844;23;20053;-80
2022/01/13 00:17:06;;;;;;;36.25;20.58;;;;;;;;;;6154827;23;20072;-78
2022/01/13 00:22:27;;;;;;;32.47;19.00;;;;;;;;;;6164497;23;20115;-78
2022/01/13 00:25:02;;;;;;;34.00;19.50;;;;;;;;;;6154342;23;20036;-80
2022/01/13 00:27:30;;;;;;;31.65;17.35;;;;;;;;;;6154594;23;20337;-77
2022/01/13 00:30:02;;;;;;;32.08;16.77;;;;;;;;;;6154424;23;20020;-78
2022/01/13 00:32:50;;;;;;;31.83;17.13;;;;;;;;;;6154312;23;20765;-78
2022/01/13 00:35:17;;;;;;;26.67;15.10;;;;;;;;;;6153783;23;20016;-78
2022/01/13 00:37:52;;;;;;;34.63;18.92;;;;;;;;;;6154728;23;20028;-79
2022/01/13 00:40:21;;;;;;;29.02;15.60;;;;;;;;;;6154138;23;20013;-77
2022/01/13 00:42:47;;;;;;;30.50;17.02;;;;;;;;;;6153902;23;20417;-77
2022/01/13 00:45:14;;;;;;;33.00;18.88;;;;;;;;;;6154624;23;20005;-77
2022/01/13 00:47:45;;;;;;;33.20;16.58;;;;;;;;;;6154188;23;20052;-79
2022/01/13 00:50:11;;;;;;;32.10;17.23;;;;;;;;;;6128592;23;20433;-77
2022/01/13 00:52:37;;;;;;;26.40;15.68;;;;;;;;;;6127934;23;20461;-77
2022/01/13 00:55:09;;;;;;;32.22;17.90;;;;;;;;;;6155252;23;20033;-77
2022/01/13 00:57:35;;;;;;;26.48;14.63;;;;;;;;;;6156123;23;20016;-78
2022/01/13 01:00:01;;;;;;;36.92;19.48;;;;;;;;;;6130434;23;20006;-78
2022/01/13 01:02:28;;;;;;;19.33;12.30;;;;;;;;;;6156128;23;20008;-78
2022/01/13 01:04:56;;;;;;;35.58;20.33;;;;;;;;;;6155773;23;20005;-77
2022/01/13 01:07:22;;;;;;;33.78;19.00;;;;;;;;;;6156169;23;20346;-78
2022/01/13 01:09:50;;;;;;;30.90;18.27;;;;;;;;;;6155965;23;20021;-78
2022/01/13 01:12:25;;;;;;;31.40;17.40;;;;;;;;;;6156251;23;20088;-77
2022/01/13 01:14:56;;;;;;;34.67;19.05;;;;;;;;;;6129655;23;20006;-77
2022/01/13 01:17:23;;;;;;;29.75;16.15;;;;;;;;;;6156344;23;20006;-77
2022/01/13 01:19:51;;;;;;;27.35;15.48;;;;;;;;;;6156231;23;20009;-78
2022/01/13 01:27:43;;;;;;;;;;;;;;;;;;6156676;23;20080;-79
2022/01/13 01:30:21;;;;;;;33.38;18.08;;;;;;;;;;6155446;23;19996;-77
2022/01/13 01:32:47;;;;;;;30.27;15.88;;;;;;;;;;6156003;23;20008;-78
2022/01/13 01:35:16;;;;;;;32.22;16.17;;;;;;;;;;6156236;23;20073;-77
2022/01/13 01:37:42;;;;;;;24.27;13.95;;;;;;;;;;6156235;23;20362;-79
2022/01/13 01:40:12;;;;;;;29.92;15.90;;;;;;;;;;6147802;23;20032;-77
2022/01/13 01:42:39;;;;;;;30.95;18.42;;;;;;;;;;6185517;23;20001;-79
2022/01/13 01:45:06;;;;;;;31.40;18.10;;;;;;;;;;6185565;23;20016;-77
2022/01/13 01:47:32;;;;;;;33.53;16.95;;;;;;;;;;6185601;23;20373;-77
2022/01/13 01:50:09;;;;;;;32.30;17.23;;;;;;;;;;6185156;23;20051;-80
2022/01/13 01:52:35;;;;;;;25.23;13.30;;;;;;;;;;6185428;23;20471;-77
2022/01/13 01:55:01;;;;;;;29.92;17.33;;;;;;;;;;6185331;23;20008;-78
2022/01/13 01:57:27;;;;;;;27.83;17.20;;;;;;;;;;6185611;23;20001;-77
2022/01/13 01:59:56;;;;;;;30.45;16.42;;;;;;;;;;6158866;23;19997;-77
2022/01/13 02:02:28;;;;;;;22.85;12.00;;;;;;;;;;6185705;23;20008;-77
2022/01/13 02:04:57;;;;;;;30.65;17.40;;;;;;;;;;6185287;23;20001;-77
2022/01/13 02:07:23;;;;;;;32.72;18.92;;;;;;;;;;6185022;23;20056;-77
2022/01/13 02:09:52;;;;;;;30.60;17.50;;;;;;;;;;6158712;23;20368;-78
2022/01/13 02:12:31;;;;;;;28.15;15.10;;;;;;;;;;6185522;23;20021;-79
2022/01/13 02:17:46;;;;;;;31.92;17.50;;;;;;;;;;6174801;23;20006;-78
2022/01/13 02:20:19;;;;;;;34.88;18.08;;;;;;;;;;6185100;23;20369;-78
2022/01/13 02:22:45;;;;;;;27.17;12.57;;;;;;;;;;6185282;23;20040;-78
2022/01/13 02:25:13;;;;;;;28.30;16.98;;;;;;;;;;6185054;23;20499;-80
2022/01/13 02:27:44;;;;;;;26.77;15.52;;;;;;;;;;6185094;23;20075;-78
2022/01/13 02:30:10;;;;;;;32.03;18.92;;;;;;;;;;6158016;23;20013;-77
2022/01/13 02:32:37;;;;;;;26.23;14.68;;;;;;;;;;6185158;23;20012;-78
2022/01/13 02:35:03;;;;;;;29.10;17.08;;;;;;;;;;6185119;23;20428;-79
2022/01/13 02:37:30;;;;;;;33.38;16.92;;;;;;;;;;6158515;23;20373;-77
2022/01/13 02:39:56;;;;;;;28.60;16.58;;;;;;;;;;6185024;23;20437;-77
2022/01/13 02:42:22;;;;;;;31.70;18.42;;;;;;;;;;6158525;23;20317;-79
2022/01/13 02:44:59;;;;;;;28.23;16.10;;;;;;;;;;6185230;23;20020;-79
2022/01/13 02:50:11;;;;;;;27.50;14.75;;;;;;;;;;6185106;23;20072;-78
2022/01/13 02:52:38;;;;;;;29.55;15.50;;;;;;;;;;6184909;23;20005;-79
2022/01/13 02:55:07;;;;;;;25.75;13.85;;;;;;;;;;6184860;23;20005;-78
2022/01/13 02:57:35;;;;;;;23.05;13.27;;;;;;;;;;6185138;23;20425;-77
2022/01/13 03:00:01;;;;;;;24.70;14.00;;;;;;;;;;6184932;23;20426;-77
2022/01/13 03:02:33;;;;;;;23.80;11.82;;;;;;;;;;6159002;23;20305;-79
2022/01/13 03:05:02;;;;;;;21.17;11.60;;;;;;;;;;6184889;23;20005;-77
2022/01/13 03:07:33;;;;;;;27.17;11.95;;;;;;;;;;6184748;23;20001;-78
2022/01/13 03:09:59;;;;;;;22.17;12.63;;;;;;;;;;6184629;23;20040;-78
2022/01/13 03:12:27;;;;;;;21.45;11.40;;;;;;;;;;6184794;23;20008;-78
2022/01/13 03:14:53;;;;;;;19.05;10.43;;;;;;;;;;6184757;23;20100;-77
2022/01/13 03:17:19;;;;;;;17.25;8.77;;;;;;;;;;6184876;23;20001;-78
2022/01/13 03:19:45;;;;;;;21.15;9.43;;;;;;;;;;6158076;23;20005;-78
2022/01/13 03:22:11;;;;;;;23.02;12.88;;;;;;;;;;6184842;23;20005;-78
2022/01/13 03:24:37;;;;;;;22.58;11.98;;;;;;;;;;6184292;23;20025;-77
2022/01/13 03:27:05;;;;;;;19.17;10.27;;;;;;;;;;6184936;23;20009;-78
2022/01/13 03:29:32;;;;;;;24.58;12.13;;;;;;;;;;6184540;23;20083;-78
2022/01/13 03:31:58;;;;;;;22.73;13.50;;;;;;;;;;6184752;23;20008;-78
2022/01/13 03:34:26;;;;;;;23.45;13.68;;;;;;;;;;6158382;23;20040;-78
2022/01/13 03:36:56;;;;;;;22.77;12.20;;;;;;;;;;6184198;23;20004;-78
2022/01/13 03:39:22;;;;;;;19.38;11.13;;;;;;;;;;6184762;23;20124;-80
2022/01/13 03:41:48;;;;;;;22.10;12.05;;;;;;;;;;6184138;23;20084;-77
2022/01/13 03:44:27;;;;;;;18.85;9.85;;;;;;;;;;6184379;23;20047;-79
2022/01/13 03:46:53;;;;;;;22.25;11.13;;;;;;;;;;6184686;23;20436;-79
2022/01/13 03:49:20;;;;;;;18.42;10.18;;;;;;;;;;6184716;23;20088;-79
2022/01/13 03:51:57;;;;;;;21.08;12.35;;;;;;;;;;6184223;23;20091;-78
2022/01/13 03:54:35;;;;;;;23.27;12.57;;;;;;;;;;6184282;23;20005;-78
2022/01/13 03:57:20;;;;;;;25.55;12.65;;;;;;;;;;6184749;23;20001;-78
2022/01/13 04:00:12;;;;;;;25.00;13.43;;;;;;;;;;6184433;23;20012;-78
2022/01/13 04:02:38;;;;;;;20.15;12.13;;;;;;;;;;6183723;23;20001;-79
2022/01/13 04:05:04;;;;;;;24.38;11.68;;;;;;;;;;6158093;23;20110;-79
2022/01/13 04:07:30;;;;;;;20.90;11.38;;;;;;;;;;6184391;23;20001;-77
2022/01/13 04:09:56;;;;;;;19.23;11.23;;;;;;;;;;6184129;23;20088;-77
2022/01/13 04:12:26;;;;;;;19.40;10.30;;;;;;;;;;6158212;23;20009;-79
2022/01/13 04:14:58;;;;;;;25.00;12.13;;;;;;;;;;6183848;23;20064;-77
2022/01/13 04:17:25;;;;;;;18.67;10.32;;;;;;;;;;6184256;23;20012;-78
2022/01/13 04:19:52;;;;;;;21.90;11.50;;;;;;;;;;6183954;23;20013;-78
2022/01/13 04:22:19;;;;;;;18.50;10.77;;;;;;;;;;6184073;23;20017;-78
2022/01/13 04:24:45;;;;;;;19.05;10.13;;;;;;;;;;6184186;23;20072;-78
2022/01/13 04:27:20;;;;;;;22.35;11.70;;;;;;;;;;6184539;23;20005;-77
2022/01/13 04:29:48;;;;;;;;;;;;;;;;;;6185086;23;20009;-78
2022/01/13 04:32:17;;;;;;;19.83;9.32;;;;;;;;;;6186502;23;19988;-78
2022/01/13 04:34:43;;;;;;;19.58;9.65;;;;;;;;;;6186256;23;20005;-79
2022/01/13 04:37:09;;;;;;;24.77;10.00;;;;;;;;;;6186519;23;20009;-78
2022/01/13 04:39:37;;;;;;;20.63;11.38;;;;;;;;;;6185832;23;20017;-79
2022/01/13 04:42:04;;;;;;;18.67;8.85;;;;;;;;;;6186220;23;20005;-78
2022/01/13 04:44:32;;;;;;;21.88;12.65;;;;;;;;;;6177486;23;20076;-77
2022/01/13 04:46:58;;;;;;;23.30;11.27;;;;;;;;;;6183095;23;20009;-77
2022/01/13 04:49:26;;;;;;;19.88;10.43;;;;;;;;;;6186011;23;20013;-78
2022/01/13 04:51:55;;;;;;;19.48;11.85;;;;;;;;;;6186154;23;20029;-78
2022/01/13 04:54:24;;;;;;;21.33;10.57;;;;;;;;;;6186142;23;20032;-78
2022/01/13 04:59:16;;;;;;;23.35;12.70;;;;;;;;;;6196072;23;20009;-78
2022/01/13 05:01:42;;;;;;;20.20;10.38;;;;;;;;;;6185667;23;20052;-77
2022/01/13 05:04:09;;;;;;;17.02;9.77;;;;;;;;;;6186202;23;20001;-77
2022/01/13 05:06:35;;;;;;;22.02;11.68;;;;;;;;;;6185496;23;20012;-77
2022/01/13 05:09:03;;;;;;;18.15;10.40;;;;;;;;;;6186178;23;20393;-78
2022/01/13 05:11:30;;;;;;;16.75;9.27;;;;;;;;;;6185947;23;20059;-77
2022/01/13 05:13:56;;;;;;;26.88;13.45;;;;;;;;;;6185766;23;20005;-78
2022/01/13 05:16:28;;;;;;;15.23;10.23;;;;;;;;;;6186168;23;20005;-80
2022/01/13 05:19:08;;;;;;;21.92;9.45;;;;;;;;;;6186101;23;20079;-80
2022/01/13 05:24:20;;;;;;;22.40;11.38;;;;;;;;;;6185857;23;20028;-78
2022/01/13 05:26:46;;;;;;;20.42;11.32;;;;;;;;;;6185858;23;20009;-80
2022/01/13 05:29:17;;;;;;;23.10;13.77;;;;;;;;;;6185768;23;20041;-80
2022/01/13 05:31:46;;;;;;;25.50;12.95;;;;;;;;;;6186212;23;20313;-79
2022/01/13 05:34:14;;;;;;;30.65;15.68;;;;;;;;;;6159340;23;20009;-78
2022/01/13 05:36:40;;;;;;;23.40;12.73;;;;;;;;;;6186010;23;20001;-79
2022/01/13 05:39:10;;;;;;;22.70;12.10;;;;;;;;;;6153785;23;20025;-79
2022/01/13 05:41:38;;;;;;;25.08;13.70;;;;;;;;;;6155621;23;20396;-79
2022/01/13 05:44:05;;;;;;;27.27;13.93;;;;;;;;;;6155405;23;20306;-79
2022/01/13 05:46:31;;;;;;;25.70;13.35;;;;;;;;;;6130410;23;20001;-79
2022/01/13 05:49:00;;;;;;;29.27;15.77;;;;;;;;;;6129487;23;20012;-80
2022/01/13 05:51:26;;;;;;;24.83;13.70;;;;;;;;;;6156038;23;20057;-80
2022/01/13 05:53:55;;;;;;;28.55;15.23;;;;;;;;;;6155677;23;20008;-79
2022/01/13 05:56:38;;;;;;;26.05;11.38;;;;;;;;;;6155919;23;20012;-80
2022/01/13 05:59:07;;;;;;;18.00;9.35;;;;;;;;;;6129923;23;20448;-79
2022/01/13 06:01:41;;;;;;;21.83;11.93;;;;;;;;;;6155917;23;20433;-78
2022/01/13 06:04:27;;;;;;;27.42;13.18;;;;;;;;;;6129846;23;20349;-80
2022/01/13 06:06:55;;;;;;;27.52;14.02;;;;;;;;;;6156016;23;20005;-79
2022/01/13 06:09:24;;;;;;;25.33;12.95;;;;;;;;;;6155540;23;20084;-79
2022/01/13 06:12:02;;;;;;;21.48;12.07;;;;;;;;;;6155797;23;20101;-78
2022/01/13 06:14:31;;;;;;;25.17;11.57;;;;;;;;;;6153260;23;20009;-79
2022/01/13 06:16:57;;;;;;;26.02;13.13;;;;;;;;;;6155215;23;20002;-78
2022/01/13 06:19:24;;;;;;;22.63;10.95;;;;;;;;;;6129899;23;20426;-80
2022/01/13 06:22:01;;;;;;;22.05;13.85;;;;;;;;;;6128780;23;20005;-79
2022/01/13 06:24:27;;;;;;;31.40;15.80;;;;;;;;;;6155986;23;20566;-77
2022/01/13 06:26:53;;;;;;;25.38;13.15;;;;;;;;;;6155686;23;20001;-77
2022/01/13 06:29:22;;;;;;;28.50;13.98;;;;;;;;;;6154233;23;20021;-78
2022/01/13 06:31:48;;;;;;;25.42;15.00;;;;;;;;;;6154980;23;20001;-78
2022/01/13 06:34:14;;;;;;;24.70;14.13;;;;;;;;;;6122010;23;20516;-77
2022/01/13 06:36:40;;;;;;;26.05;14.38;;;;;;;;;;6153512;23;20492;-78
2022/01/13 06:39:09;;;;;;;29.52;16.70;;;;;;;;;;6153465;23;20013;-79
2022/01/13 06:41:41;;;;;;;30.98;15.68;;;;;;;;;;6151997;23;20009;-79
2022/01/13 06:44:07;;;;;;;29.98;14.30;;;;;;;;;;6151776;23;20056;-77
2022/01/13 06:46:34;;;;;;;35.75;18.70;;;;;;;;;;6153163;23;20022;-78
2022/01/13 06:49:00;;;;;;;27.83;15.88;;;;;;;;;;6127774;23;20021;-78
2022/01/13 06:51:35;;;;;;;31.23;17.00;;;;;;;;;;6153601;23;20009;-77
2022/01/13 06:56:46;;;;;;;;;;;;;;;;;;6153771;23;20080;-79
2022/01/13 06:59:15;;;;;;;26.45;13.55;;;;;;;;;;6152781;23;20328;-81
2022/01/13 07:01:45;;;;;;;25.63;13.65;;;;;;;;;;6153655;23;20013;-80
2022/01/13 07:04:13;;;;;;;27.38;14.90;;;;;;;;;;6127660;23;20064;-78
2022/01/13 07:06:39;;;;;;;29.88;15.80;;;;;;;;;;6152905;23;20002;-80
2022/01/13 07:09:07;;;;;;;30.02;16.23;;;;;;;;;;6152087;23;20013;-79
2022/01/13 07:11:34;;;;;;;27.83;14.85;;;;;;;;;;6153391;23;20418;-78
2022/01/13 07:17:15;;;;;;;;;;;;;;;;;;;;;
2022/01/13 07:19:55;;;;;;;;;;;;;;;;;;;;;
2022/01/13 07:22:29;;;;;;;28.65;14.65;;;;;;;;;;6152973;23;20068;-79
2022/01/13 07:25:16;;;;;;;31.40;16.80;;;;;;;;;;6152740;23;20119;-80
2022/01/13 07:28:09;;;;;;;30.38;16.88;;;;;;;;;;6121766;23;20024;-79
2022/01/13 07:31:09;;;;;;;26.02;14.07;;;;;;;;;;6152868;23;20045;-84
2022/01/13 07:36:40;;;;;;;34.13;17.52;;;;;;;;;;6091545;23;20006;-79
2022/01/13 07:39:09;;;;;;;26.58;15.60;;;;;;;;;;6067654;23;20036;-78
2022/01/13 07:45:18;;;;;;;;;;;;;;;;;;;;;
2022/01/13 07:51:30;;;;;;;;;;;;;;;;;;;;;
2022/01/13 07:54:02;;;;;;;29.15;13.98;;;;;;;;;;5985074;23;20090;-77
2022/01/13 07:56:58;;;;;;;;;;;;;;;;;;;;;
2022/01/13 07:59:48;;;;;;;18.80;10.27;;;;;;;;;;6092029;23;20085;-78
2022/01/13 08:08:05;;;;;;;29.23;15.52;;;;;;;;;;5950079;24;20441;-79
2022/01/13 08:16:59;;;;;;;30.17;14.07;;;;;;;;;;6092809;23;20006;-69
2022/01/13 08:22:27;;;;;;;26.65;13.13;;;;;;;;;;6151126;23;20044;-80
2022/01/13 08:24:58;;;;;;;30.27;14.55;;;;;;;;;;6153798;23;20425;-80
2022/01/13 08:27:24;;;;;;;28.40;15.80;;;;;;;;;;6152700;23;20002;-80
2022/01/13 08:29:50;;;;;;;32.33;15.98;;;;;;;;;;6151613;23;20041;-80
2022/01/13 08:32:26;;;;;;;;;;;;;;;;;;;;;
2022/01/13 08:35:22;;;;;;;29.88;15.75;;;;;;;;;;6150356;23;20088;-81
2022/01/13 08:40:44;;;;;;;29.17;16.73;;;;;;;;;;6113684;23;20446;-79
2022/01/13 08:43:11;;;;;;;28.52;14.23;;;;;;;;;;6095807;23;20092;-81
2022/01/13 08:49:27;;;;;;;23.35;12.38;;;;;;;;;;6150570;23;20045;-81
2022/01/13 08:51:58;;;;;;;20.70;12.57;;;;;;;;;;6149219;23;20399;-81
2022/01/13 08:57:56;;;;;;;20.20;12.32;;;;;;;;;;6106222;23;20021;-83
2022/01/13 09:00:32;;;;;;;25.35;14.15;;;;;;;;;;6149589;23;20464;-81
2022/01/13 09:03:14;;;;;;;29.63;15.07;;;;;;;;;;6152402;23;20368;-80
2022/01/13 09:05:46;;;;;;;28.13;15.07;;;;;;;;;;6152159;23;20036;-80
2022/01/13 09:08:13;;;;;;;29.90;14.73;;;;;;;;;;6152284;23;20012;-80
2022/01/13 09:10:40;;;;;;;27.30;14.82;;;;;;;;;;6126273;23;20337;-80
2022/01/13 09:13:11;;;;;;;31.40;16.13;;;;;;;;;;6152071;23;20005;-79
2022/01/13 09:15:43;;;;;;;25.77;13.85;;;;;;;;;;6152675;23;20028;-78
2022/01/13 09:18:16;;;;;;;32.72;16.25;;;;;;;;;;6154330;23;20016;-79
2022/01/13 09:21:07;;;;;;;31.83;16.52;;;;;;;;;;6151874;23;20366;-80
2022/01/13 09:23:36;;;;;;;25.30;13.30;;;;;;;;;;6154637;23;20433;-79
2022/01/13 09:26:02;;;;;;;31.00;16.00;;;;;;;;;;6154237;23;20546;-81
2022/01/13 09:28:28;;;;;;;26.45;14.43;;;;;;;;;;6154802;23;20012;-79
2022/01/13 09:31:04;;;;;;;24.10;11.40;;;;;;;;;;6153219;23;20043;-82
2022/01/13 09:33:49;;;;;;;29.60;15.85;;;;;;;;;;6152988;23;20009;-80
2022/01/13 09:36:16;;;;;;;24.45;14.07;;;;;;;;;;6153987;23;20077;-78
2022/01/13 09:38:42;;;;;;;25.60;13.25;;;;;;;;;;6152606;23;20006;-78
2022/01/13 09:44:54;;;;;;;;;;;;;;;;;;;;;
2022/01/13 09:47:35;;;;;;;27.90;14.30;;;;;;;;;;6111951;23;20537;-80
2022/01/13 09:53:31;;;;;;;;;;;;;;;;;;;;;
2022/01/13 09:58:53;;;;;;;30.38;18.42;;;;;;;;;;6172933;23;20084;-75
2022/01/13 10:01:19;;;;;;;24.45;15.00;;;;;;;;;;6183324;23;20529;-75
2022/01/13 10:03:48;;;;;;;25.65;14.40;;;;;;;;;;6184352;23;20003;-82
2022/01/13 10:06:18;;;;;;;26.05;15.32;;;;;;;;;;6182822;23;20436;-68
2022/01/13 10:08:52;;;;;;;27.95;14.43;;;;;;;;;;6183497;23;20437;-80
2022/01/13 10:11:39;;;;;;;30.17;16.30;;;;;;;;;;6156398;23;20008;-83
2022/01/13 10:14:10;;;;;;;28.00;14.50;;;;;;;;;;6183490;23;20001;-80
2022/01/13 10:16:42;;;;;;;30.80;15.63;;;;;;;;;;6182800;23;20012;-79
2022/01/13 10:19:10;;;;;;;26.17;14.15;;;;;;;;;;6155827;23;20499;-71
2022/01/13 10:21:38;;;;;;;28.15;13.82;;;;;;;;;;6132095;23;20001;-83
2022/01/13 10:24:12;;;;;;;33.90;19.02;;;;;;;;;;6182474;23;20433;-80
2022/01/13 10:26:59;;;;;;;31.20;15.13;;;;;;;;;;6156549;23;20009;-80
2022/01/13 10:29:44;;;;;;;23.83;12.57;;;;;;;;;;6181353;23;20737;-79
2022/01/13 10:32:11;;;;;;;28.70;14.70;;;;;;;;;;6182383;23;20391;-78
2022/01/13 10:34:39;;;;;;;33.15;17.65;;;;;;;;;;6182410;23;20097;-78
2022/01/13 10:37:10;;;;;;;27.63;14.52;;;;;;;;;;6183174;23;20029;-79
2022/01/13 10:39:46;;;;;;;32.60;14.55;;;;;;;;;;6156932;23;20329;-79
2022/01/13 10:42:44;;;;;;;22.77;13.38;;;;;;;;;;6182438;23;20005;-79
2022/01/13 10:45:01;;;;;;;27.27;14.88;;;;;;;;;;6181712;23;20009;-80
2022/01/13 10:47:30;;;;;;;26.80;15.50;;;;;;;;;;6155650;23;20013;-78
2022/01/13 10:50:00;;;;;;;29.98;14.38;;;;;;;;;;6182150;23;20009;-78
2022/01/13 10:52:27;;;;;;;29.83;15.90;;;;;;;;;;6182139;23;20001;-78
2022/01/13 10:54:54;;;;;;;29.10;14.35;;;;;;;;;;6183671;23;20001;-83
2022/01/13 10:57:24;;;;;;;37.85;20.17;;;;;;;;;;6183509;23;20012;-80
2022/01/13 10:59:50;;;;;;;40.03;21.98;;;;;;;;;;6181843;23;20084;-81
2022/01/13 11:02:18;;;;;;;27.38;15.25;;;;;;;;;;6182460;23;20009;-79
2022/01/13 11:04:44;;;;;;;26.25;15.35;;;;;;;;;;6182888;23;20055;-81
2022/01/13 11:07:15;;;;;;;30.67;16.38;;;;;;;;;;6182761;23;20092;-79
2022/01/13 11:09:51;;;;;;;24.90;14.05;;;;;;;;;;6182782;23;20019;-79
2022/01/13 11:12:17;;;;;;;24.98;13.18;;;;;;;;;;6181621;23;20116;-78
2022/01/13 11:14:52;;;;;;;27.17;14.57;;;;;;;;;;6182834;23;20126;-81
2022/01/13 11:17:20;;;;;;;25.08;13.77;;;;;;;;;;6182785;23;20320;-79
2022/01/13 11:19:49;;;;;;;28.20;17.48;;;;;;;;;;6155736;23;20005;-79
2022/01/13 11:22:16;;;;;;;22.80;12.38;;;;;;;;;;6183276;23;20062;-79
2022/01/13 11:27:39;;;;;;;37.38;19.60;;;;;;;;;;6191776;23;20478;-79
2022/01/13 11:30:19;;;;;;;31.65;15.35;;;;;;;;;;6181808;23;20009;-79
2022/01/13 11:32:46;;;;;;;26.52;13.30;;;;;;;;;;6181790;23;20067;-81
2022/01/13 11:35:42;;;;;;;;;;;;;;;;;;;;;
2022/01/13 11:38:11;;;;;;;27.08;14.38;;;;;;;;;;6158485;23;20088;-78
2022/01/13 11:41:09;;;;;;;26.17;13.32;;;;;;;;;;6181482;23;20096;-79
2022/01/13 11:43:55;;;;;;;24.98;13.43;;;;;;;;;;6132210;23;20455;-80
2022/01/13 11:46:23;;;;;;;26.67;13.95;;;;;;;;;;6181573;23;20008;-79
2022/01/13 11:49:07;;;;;;;20.73;12.15;;;;;;;;;;6182246;23;20074;-77
2022/01/13 11:51:49;;;;;;;28.85;14.88;;;;;;;;;;6182503;23;20009;-81
2022/01/13 11:54:34;;;;;;;22.90;13.45;;;;;;;;;;6182515;23;20009;-79
2022/01/13 11:57:00;;;;;;;;;;;;;;;;;;6156497;23;20009;-79
2022/01/13 11:59:26;;;;;;;26.38;15.57;;;;;;;;;;6182616;23;20342;-78
2022/01/13 12:01:52;;;;;;;25.20;14.23;;;;;;;;;;6155274;23;20751;-81
2022/01/13 12:04:26;;;;;;;27.88;15.38;;;;;;;;;;6182124;23;20005;-78
2022/01/13 12:06:53;;;;;;;27.95;14.20;;;;;;;;;;6182803;23;20001;-75
2022/01/13 12:09:22;;;;;;;25.02;15.13;;;;;;;;;;6182510;23;20520;-79
2022/01/13 12:11:54;;;;;;;28.95;16.27;;;;;;;;;;6155572;23;20500;-78
2022/01/13 12:14:32;;;;;;;27.55;15.50;;;;;;;;;;6182067;23;20376;-81
2022/01/13 12:17:23;;;;;;;;;;;;;;;;;;;;;
2022/01/13 12:19:51;;;;;;;25.50;14.75;;;;;;;;;;6182261;23;20088;-77
2022/01/13 12:23:25;;;;;;;27.52;14.10;;;;;;;;;;6156245;23;20017;-82
2022/01/13 12:25:49;;;;;;;;;;;;;;;;;;;;;
2022/01/13 12:28:46;;;;;;;;;;;;;;;;;;;;;
2022/01/13 12:31:31;;;;;;;77.88;31.25;;;;;;;;;;6180661;23;20103;-80
2022/01/13 12:34:00;;;;;;;35.28;22.25;;;;;;;;;;6154777;23;20009;-79
2022/01/13 12:39:17;;;;;;;25.52;14.68;;;;;;;;;;6180821;23;20025;-81
2022/01/13 12:42:03;;;;;;;26.17;14.98;;;;;;;;;;6181686;23;20067;-80
2022/01/13 12:47:15;;;;;;;30.00;15.18;;;;;;;;;;6183168;23;20039;-79
2022/01/13 12:49:41;;;;;;;24.60;13.88;;;;;;;;;;6182154;23;20036;-79
2022/01/13 12:52:08;;;;;;;25.25;13.77;;;;;;;;;;6184523;23;20009;-79
2022/01/13 12:54:34;;;;;;;25.60;12.32;;;;;;;;;;6183929;23;20518;-79
2022/01/13 12:57:04;;;;;;;27.52;14.18;;;;;;;;;;6184811;23;20008;-80
2022/01/13 12:59:32;;;;;;;26.90;15.10;;;;;;;;;;6158927;23;20324;-76
2022/01/13 13:01:58;;;;;;;30.35;16.63;;;;;;;;;;6184857;23;20001;-78
2022/01/13 13:04:31;;;;;;;25.98;14.60;;;;;;;;;;6157231;23;20392;-81
2022/01/13 13:07:02;;;;;;;27.92;13.52;;;;;;;;;;6157856;23;20466;-79
2022/01/13 13:09:30;;;;;;;24.33;14.40;;;;;;;;;;6183896;23;20009;-78
2022/01/13 13:12:01;;;;;;;26.58;15.45;;;;;;;;;;6159456;23;20088;-79
2022/01/13 13:15:39;;;;;;;27.63;14.90;;;;;;;;;;6183357;23;20027;-78
2022/01/13 13:17:31;;;;;;;26.15;15.00;;;;;;;;;;6177485;23;20009;-77
2022/01/13 13:19:57;;;;;;;31.08;19.00;;;;;;;;;;6182078;23;20005;-79
2022/01/13 13:22:23;;;;;;;27.92;15.13;;;;;;;;;;6156549;23;20417;-80
2022/01/13 13:24:49;;;;;;;28.98;15.15;;;;;;;;;;6182929;23;20312;-79
2022/01/13 13:27:27;;;;;;;35.28;18.40;;;;;;;;;;6183859;23;20001;-80
2022/01/13 13:29:53;;;;;;;22.50;11.55;;;;;;;;;;6183653;23;20017;-80
2022/01/13 13:32:20;;;;;;;32.00;17.77;;;;;;;;;;6156224;23;20369;-77
2022/01/13 13:34:48;;;;;;;38.40;23.73;;;;;;;;;;6182835;23;20459;-78
2022/01/13 13:37:37;;;;;;;39.70;19.40;;;;;;;;;;6183369;23;20092;-78
2022/01/13 13:40:03;;;;;;;31.30;18.27;;;;;;;;;;6183176;23;20017;-79
2022/01/13 13:42:30;;;;;;;45.92;27.77;;;;;;;;;;6158515;23;20008;-79
2022/01/13 13:44:56;;;;;;;31.48;17.98;;;;;;;;;;6183413;23;20028;-79
2022/01/13 13:47:45;;;;;;;28.95;15.10;;;;;;;;;;6183900;23;20005;-82
2022/01/13 13:50:37;;;;;;;;;;;;;;;;;;;;;
2022/01/13 13:53:13;;;;;;;29.85;16.75;;;;;;;;;;6183331;23;20100;-80
2022/01/13 13:55:54;;;;;;;30.08;16.65;;;;;;;;;;6184952;23;20321;-79
2022/01/13 13:58:21;;;;;;;26.88;15.77;;;;;;;;;;6183951;23;20438;-77
2022/01/13 14:00:56;;;;;;;32.28;15.77;;;;;;;;;;6184615;23;20068;-80
2022/01/13 14:03:46;;;;;;;;;;;;;;;;;;;;;
2022/01/13 14:06:34;;;;;;;23.45;11.98;;;;;;;;;;6185122;23;20523;-79
2022/01/13 14:09:03;;;;;;;25.83;13.68;;;;;;;;;;6184328;23;20032;-80
2022/01/13 14:11:42;;;;;;;26.02;15.90;;;;;;;;;;6185680;23;20001;-78
2022/01/13 14:14:09;;;;;;;31.38;18.02;;;;;;;;;;6184722;23;20044;-78
2022/01/13 14:16:38;;;;;;;28.30;15.93;;;;;;;;;;6183675;23;20080;-79
2022/01/13 14:21:53;;;;;;;31.00;17.85;;;;;;;;;;6185683;23;20388;-77
2022/01/13 14:24:39;;;;;;;26.45;15.30;;;;;;;;;;6184251;23;20008;-81
2022/01/13 14:27:06;;;;;;;21.45;12.38;;;;;;;;;;6158528;23;20080;-77
2022/01/13 14:29:32;;;;;;;29.65;17.08;;;;;;;;;;6185474;23;20009;-79
2022/01/13 14:32:17;;;;;;;28.92;14.45;;;;;;;;;;6184079;23;20048;-78
2022/01/13 14:34:44;;;;;;;25.50;13.27;;;;;;;;;;6184984;23;20076;-77
2022/01/13 14:37:12;;;;;;;26.63;13.85;;;;;;;;;;6185076;23;20001;-79
2022/01/13 14:39:40;;;;;;;30.13;16.67;;;;;;;;;;6185152;23;20401;-80
2022/01/13 14:42:11;;;;;;;30.83;18.08;;;;;;;;;;6185186;23;20024;-81
2022/01/13 14:44:41;;;;;;;31.88;16.92;;;;;;;;;;6158367;23;20089;-78
2022/01/13 14:47:07;;;;;;;37.95;20.08;;;;;;;;;;6184125;23;20005;-79
2022/01/13 14:49:35;;;;;;;32.90;17.70;;;;;;;;;;6183932;23;20017;-78
2022/01/13 14:52:08;;;;;;;26.88;15.68;;;;;;;;;;6183910;23;20480;-80
2022/01/13 14:54:35;;;;;;;38.30;18.42;;;;;;;;;;6184431;23;20013;-78
2022/01/13 14:57:02;;;;;;;32.67;18.70;;;;;;;;;;6185175;23;20068;-78
2022/01/13 14:59:28;;;;;;;32.97;17.05;;;;;;;;;;6184419;23;20063;-78
2022/01/13 15:01:55;;;;;;;35.47;19.10;;;;;;;;;;6184397;23;20464;-78
2022/01/13 15:04:21;;;;;;;33.25;19.92;;;;;;;;;;6184040;23;20451;-78
2022/01/13 15:06:47;;;;;;;35.50;20.05;;;;;;;;;;6157993;23;20012;-80
2022/01/13 15:09:23;;;;;;;33.05;18.80;;;;;;;;;;6158118;23;20013;-79
2022/01/13 15:11:58;;;;;;;42.63;24.98;;;;;;;;;;6182929;23;20005;-78
2022/01/13 15:14:34;;;;;;;41.03;22.73;;;;;;;;;;6184326;23;20000;-79
2022/01/13 15:17:03;;;;;;;35.40;19.25;;;;;;;;;;6184409;23;20012;-78
2022/01/13 15:19:39;;;;;;;;;;;;;;;;;;;;;
2022/01/13 15:22:24;;;;;;;29.77;18.15;;;;;;;;;;6184024;23;20080;-78
2022/01/13 15:28:26;;;;;;;27.85;14.45;;;;;;;;;;6171401;23;20044;-79
2022/01/13 15:34:15;;;;;;;35.40;18.92;;;;;;;;;;6093246;23;20069;-83
2022/01/13 15:36:48;;;;;;;36.13;18.85;;;;;;;;;;6093819;23;20384;-78
2022/01/13 15:39:55;;;;;;;29.83;19.07;;;;;;;;;;6162432;23;20444;-81
2022/01/13 15:45:54;;;;;;;29.02;17.38;;;;;;;;;;6091255;23;20013;-79
2022/01/13 15:48:53;;;;;;;;;;;;;;;;;;;;;
2022/01/13 15:51:48;;;;;;;28.00;15.65;;;;;;;;;;6177755;23;20381;-77
2022/01/13 15:57:28;;;;;;;;;;;;;;;;;;;;;
2022/01/13 16:00:04;;;;;;;28.08;15.82;;;;;;;;;;6184551;23;20080;-77
2022/01/13 16:02:33;;;;;;;35.20;19.25;;;;;;;;;;6183825;23;20013;-79
2022/01/13 16:04:59;;;;;;;30.60;17.88;;;;;;;;;;6184814;23;20009;-76
2022/01/13 16:07:25;;;;;;;30.23;17.00;;;;;;;;;;6184174;23;20005;-76
2022/01/13 16:09:51;;;;;;;26.95;16.15;;;;;;;;;;6183892;23;20384;-78
2022/01/13 16:12:17;;;;;;;29.10;16.63;;;;;;;;;;6184743;23;20005;-76
2022/01/13 16:14:45;;;;;;;33.60;19.58;;;;;;;;;;6184388;23;20436;-77
2022/01/13 16:17:12;;;;;;;30.95;19.27;;;;;;;;;;6184786;23;20005;-77
2022/01/13 16:19:38;;;;;;;34.88;20.08;;;;;;;;;;6183829;23;20001;-78
2022/01/13 16:22:05;;;;;;;31.48;18.55;;;;;;;;;;6184529;23;20063;-77
2022/01/13 16:24:35;;;;;;;32.60;18.13;;;;;;;;;;6184923;23;20552;-82
2022/01/13 16:27:04;;;;;;;29.50;18.33;;;;;;;;;;6186192;23;20023;-80
2022/01/13 16:29:56;;;;;;;33.35;19.63;;;;;;;;;;6186076;23;20001;-81
2022/01/13 16:32:27;;;;;;;29.25;15.95;;;;;;;;;;6186354;23;20040;-81
2022/01/13 16:34:53;;;;;;;29.02;16.75;;;;;;;;;;6184548;23;20029;-84
2022/01/13 16:37:22;;;;;;;32.42;19.00;;;;;;;;;;6186488;23;20005;-80
2022/01/13 16:40:09;;;;;;;29.30;17.13;;;;;;;;;;6186566;23;20041;-77